createdAt,value
2022-08-26T00:01:42.061Z,24.90
2022-08-26T00:04:12.049Z,25.00
2022-08-26T00:06:42.654Z,24.90
2022-08-26T00:09:13.713Z,24.80
2022-08-26T00:11:44.735Z,24.80
2022-08-26T00:14:13.225Z,24.70
2022-08-26T00:16:40.800Z,24.60
2022-08-26T00:19:08.183Z,24.70
2022-08-26T00:21:35.467Z,24.60
2022-08-26T00:24:04.491Z,24.70
2022-08-26T00:26:33.495Z,24.70
2022-08-26T00:29:00.176Z,24.70
2022-08-26T00:31:27.033Z,24.70
2022-08-26T00:33:53.891Z,24.70
2022-08-26T00:36:22.572Z,24.70
2022-08-26T00:38:49.999Z,24.80
2022-08-26T00:41:19.538Z,24.80
2022-08-26T00:43:47.901Z,24.70
2022-08-26T00:46:19.591Z,24.70
2022-08-26T00:48:49.469Z,24.80
2022-08-26T00:51:20.791Z,24.80
2022-08-26T00:53:54.139Z,24.80
2022-08-26T00:56:34.289Z,24.80
2022-08-26T00:59:05.026Z,24.80
2022-08-26T01:01:32.101Z,24.80
2022-08-26T01:04:40.213Z,24.80
2022-08-26T01:07:09.436Z,24.80
2022-08-26T01:09:36.575Z,24.70
2022-08-26T01:12:04.361Z,24.60
2022-08-26T01:14:36.758Z,24.60
2022-08-26T01:17:06.124Z,24.60
2022-08-26T01:19:47.981Z,24.60
2022-08-26T01:22:20.452Z,24.60
2022-08-26T01:24:48.620Z,24.60
2022-08-26T01:27:18.838Z,24.60
2022-08-26T01:29:49.152Z,24.60
2022-08-26T01:32:22.198Z,24.60
2022-08-26T01:34:50.231Z,24.50
2022-08-26T01:37:27.673Z,24.50
2022-08-26T01:39:56.109Z,24.50
2022-08-26T01:42:25.824Z,24.50
2022-08-26T01:44:59.042Z,24.50
2022-08-26T01:47:27.796Z,24.50
2022-08-26T01:49:59.590Z,24.40
2022-08-26T01:52:30.145Z,24.40
2022-08-26T01:54:58.536Z,24.30
2022-08-26T01:57:27.395Z,24.20
2022-08-26T01:59:58.299Z,24.20
2022-08-26T02:02:25.759Z,24.20
2022-08-26T02:05:00.724Z,24.20
2022-08-26T02:07:28.455Z,24.20
2022-08-26T02:09:55.177Z,24.20
2022-08-26T02:12:22.527Z,24.20
2022-08-26T02:14:55.639Z,24.20
2022-08-26T02:17:29.099Z,24.10
2022-08-26T02:19:56.639Z,24.10
2022-08-26T02:22:24.511Z,24.10
2022-08-26T02:25:01.339Z,24.10
2022-08-26T02:27:33.500Z,24.10
2022-08-26T02:30:06.881Z,24.10
2022-08-26T02:32:33.768Z,24.10
2022-08-26T02:35:01.964Z,24.10
2022-08-26T02:37:31.144Z,24.10
2022-08-26T02:39:58.151Z,24.10
2022-08-26T02:42:24.863Z,24.10
2022-08-26T02:44:51.800Z,24.10
2022-08-26T02:47:18.587Z,24.00
2022-08-26T02:49:47.378Z,24.00
2022-08-26T02:52:14.616Z,24.00
2022-08-26T02:54:41.407Z,24.00
2022-08-26T02:57:09.731Z,23.90
2022-08-26T02:59:39.119Z,23.90
2022-08-26T03:02:06.489Z,23.90
2022-08-26T03:04:33.799Z,23.90
2022-08-26T03:07:00.531Z,23.80
2022-08-26T03:09:27.192Z,23.80
2022-08-26T03:11:55.407Z,23.80
2022-08-26T03:14:23.817Z,23.80
2022-08-26T03:16:53.840Z,23.70
2022-08-26T03:19:23.273Z,23.70
2022-08-26T03:21:50.200Z,23.60
2022-08-26T03:24:19.768Z,23.60
2022-08-26T03:26:52.911Z,23.50
2022-08-26T03:29:39.496Z,23.50
2022-08-26T03:32:06.576Z,23.50
2022-08-26T03:34:34.961Z,23.50
2022-08-26T03:37:01.978Z,23.50
2022-08-26T03:39:31.763Z,23.40
2022-08-26T03:41:59.684Z,23.40
2022-08-26T03:44:26.627Z,23.40
2022-08-26T03:46:54.400Z,23.30
2022-08-26T03:49:21.144Z,23.20
2022-08-26T03:51:48.158Z,23.20
2022-08-26T03:54:15.412Z,23.10
2022-08-26T03:56:42.018Z,23.10
2022-08-26T03:59:08.936Z,23.10
2022-08-26T04:01:36.272Z,23.10
2022-08-26T04:04:03.826Z,23.10
2022-08-26T04:06:36.857Z,23.10
2022-08-26T04:09:09.876Z,23.10
2022-08-26T04:11:39.320Z,23.10
2022-08-26T04:14:11.118Z,23.10
2022-08-26T04:16:38.811Z,23.00
2022-08-26T04:19:06.480Z,23.00
2022-08-26T04:21:34.588Z,22.90
2022-08-26T04:24:03.600Z,22.80
2022-08-26T04:26:39.354Z,22.80
2022-08-26T04:29:10.512Z,22.90
2022-08-26T04:31:37.828Z,22.80
2022-08-26T04:34:06.197Z,22.90
2022-08-26T04:36:32.828Z,22.90
2022-08-26T04:39:02.096Z,22.90
2022-08-26T04:41:29.309Z,22.90
2022-08-26T04:43:58.276Z,22.80
2022-08-26T04:46:25.825Z,22.80
2022-08-26T04:48:53.636Z,22.80
2022-08-26T04:51:27.100Z,22.80
2022-08-26T04:53:57.126Z,22.80
2022-08-26T04:56:29.744Z,22.70
2022-08-26T04:58:56.722Z,22.70
2022-08-26T05:01:23.996Z,22.70
2022-08-26T05:03:51.045Z,22.70
2022-08-26T05:06:19.300Z,22.70
2022-08-26T05:08:46.036Z,22.80
2022-08-26T05:11:13.435Z,22.80
2022-08-26T05:13:40.941Z,22.80
2022-08-26T05:16:12.994Z,22.80
2022-08-26T05:18:40.975Z,22.80
2022-08-26T05:21:21.740Z,22.80
2022-08-26T05:23:51.217Z,22.80
2022-08-26T05:26:23.025Z,22.80
2022-08-26T05:28:51.008Z,22.80
2022-08-26T05:31:24.489Z,22.80
2022-08-26T05:33:51.197Z,22.80
2022-08-26T05:36:21.736Z,22.80
2022-08-26T05:38:49.153Z,22.80
2022-08-26T05:41:15.742Z,22.80
2022-08-26T05:43:43.701Z,22.80
2022-08-26T05:46:12.289Z,22.80
2022-08-26T05:48:44.268Z,22.80
2022-08-26T05:51:12.247Z,22.80
2022-08-26T05:53:40.906Z,22.90
2022-08-26T05:56:12.939Z,23.00
2022-08-26T05:58:41.183Z,23.00
2022-08-26T06:01:20.264Z,23.00
2022-08-26T06:03:51.680Z,23.10
2022-08-26T06:06:27.878Z,23.10
2022-08-26T06:08:59.134Z,23.10
2022-08-26T06:11:27.511Z,23.10
2022-08-26T06:13:58.906Z,23.20
2022-08-26T06:16:28.508Z,23.20
2022-08-26T06:18:55.309Z,23.20
2022-08-26T06:21:25.221Z,23.20
2022-08-26T06:24:14.155Z,23.30
2022-08-26T06:26:42.643Z,23.40
2022-08-26T06:29:10.907Z,23.30
2022-08-26T06:31:42.073Z,23.40
2022-08-26T06:34:10.858Z,23.50
2022-08-26T06:36:40.938Z,23.50
2022-08-26T06:39:13.112Z,23.50
2022-08-26T06:41:44.870Z,23.60
2022-08-26T06:44:12.759Z,23.70
2022-08-26T06:46:40.008Z,23.70
2022-08-26T06:49:06.685Z,23.70
2022-08-26T06:51:38.177Z,23.70
2022-08-26T06:54:05.977Z,23.80
2022-08-26T06:56:40.309Z,23.80
2022-08-26T06:59:08.232Z,23.90
2022-08-26T07:01:38.818Z,24.10
2022-08-26T07:04:10.721Z,24.20
2022-08-26T07:06:40.266Z,24.30
2022-08-26T07:09:09.871Z,24.30
2022-08-26T07:11:38.642Z,24.40
2022-08-26T07:14:06.129Z,24.50
2022-08-26T07:16:33.084Z,24.60
2022-08-26T07:18:59.768Z,24.70
2022-08-26T07:21:30.009Z,24.80
2022-08-26T07:24:01.433Z,24.80
2022-08-26T07:26:32.428Z,24.90
2022-08-26T07:28:59.757Z,25.00
2022-08-26T07:31:28.358Z,25.10
2022-08-26T07:33:56.719Z,25.10
2022-08-26T07:36:25.708Z,25.10
2022-08-26T07:38:52.496Z,25.20
2022-08-26T07:41:22.673Z,25.30
2022-08-26T07:43:50.387Z,25.40
2022-08-26T07:46:27.417Z,25.50
2022-08-26T07:48:57.739Z,25.50
2022-08-26T07:51:25.168Z,25.60
2022-08-26T07:53:52.920Z,25.60
2022-08-26T07:56:21.093Z,25.60
2022-08-26T07:58:51.290Z,25.60
2022-08-26T08:01:23.632Z,25.50
2022-08-26T08:03:52.508Z,25.40
2022-08-26T08:06:21.000Z,25.30
2022-08-26T08:08:50.756Z,25.00
2022-08-26T08:11:21.353Z,24.80
2022-08-26T08:13:48.730Z,24.70
2022-08-26T08:16:15.712Z,24.60
2022-08-26T08:18:42.413Z,24.50
2022-08-26T08:21:21.913Z,24.40
2022-08-26T08:23:52.897Z,24.30
2022-08-26T08:26:20.156Z,24.10
2022-08-26T08:28:47.740Z,24.00
2022-08-26T08:34:16.471Z,23.90
2022-08-26T08:36:46.426Z,23.80
2022-08-26T08:39:13.513Z,23.80
2022-08-26T08:41:43.531Z,24.00
2022-08-26T08:44:19.072Z,23.90
2022-08-26T08:46:48.837Z,23.90
2022-08-26T08:49:16.882Z,23.90
2022-08-26T08:51:54.230Z,23.90
2022-08-26T08:54:22.909Z,24.00
2022-08-26T08:57:01.597Z,24.20
2022-08-26T08:59:34.072Z,24.30
2022-08-26T09:02:04.684Z,24.50
2022-08-26T09:04:57.943Z,24.50
2022-08-26T09:07:42.811Z,24.60
2022-08-26T09:10:36.887Z,24.70
2022-08-26T09:13:09.242Z,24.80
2022-08-26T09:16:25.912Z,24.90
2022-08-26T09:19:24.506Z,25.00
2022-08-26T09:22:00.198Z,25.20
2022-08-26T09:24:29.212Z,25.30
2022-08-26T09:26:58.822Z,25.30
2022-08-26T09:29:30.929Z,25.40
2022-08-26T09:32:23.977Z,25.50
2022-08-26T09:35:03.656Z,25.50
2022-08-26T09:37:42.910Z,25.60
2022-08-26T09:40:27.607Z,25.70
2022-08-26T09:43:10.003Z,25.80
2022-08-26T09:45:38.859Z,25.80
2022-08-26T09:48:08.066Z,25.90
2022-08-26T09:50:57.628Z,26.00
2022-08-26T09:53:30.661Z,26.00
2022-08-26T09:56:21.240Z,26.10
2022-08-26T09:58:50.222Z,26.10
2022-08-26T10:01:23.211Z,26.00
2022-08-26T10:03:51.277Z,26.00
2022-08-26T10:06:17.975Z,26.10
2022-08-26T10:08:51.051Z,26.20
2022-08-26T10:11:39.844Z,26.20
2022-08-26T10:14:20.856Z,26.20
2022-08-26T10:17:14.809Z,26.20
2022-08-26T10:19:56.803Z,26.20
2022-08-26T10:22:53.248Z,26.20
2022-08-26T10:25:42.394Z,26.30
2022-08-26T10:28:23.119Z,26.40
2022-08-26T10:31:04.495Z,26.50
2022-08-26T10:33:31.412Z,26.60
2022-08-26T10:36:03.015Z,26.60
2022-08-26T10:38:34.654Z,26.60
2022-08-26T10:41:10.601Z,26.60
2022-08-26T10:43:51.247Z,26.60
2022-08-26T10:46:27.038Z,26.70
2022-08-26T10:49:00.547Z,26.80
2022-08-26T10:51:36.327Z,26.90
2022-08-26T10:54:15.984Z,26.90
2022-08-26T10:57:12.340Z,26.90
2022-08-26T10:59:52.685Z,27.00
2022-08-26T11:02:47.189Z,27.00
2022-08-26T11:05:23.420Z,27.10
2022-08-26T11:07:53.892Z,27.20
2022-08-26T11:10:21.732Z,27.30
2022-08-26T11:12:54.431Z,27.00
2022-08-26T11:15:24.793Z,26.40
2022-08-26T11:17:51.554Z,26.00
2022-08-26T11:20:29.887Z,25.90
2022-08-26T11:23:22.688Z,25.70
2022-08-26T11:25:56.266Z,25.40
2022-08-26T11:28:39.890Z,25.10
2022-08-26T11:31:25.218Z,24.90
2022-08-26T11:34:00.207Z,24.70
2022-08-26T11:36:57.213Z,24.70
2022-08-26T11:39:38.670Z,24.80
2022-08-26T11:42:33.056Z,24.90
2022-08-26T11:45:05.343Z,25.00
2022-08-26T11:47:32.687Z,25.00
2022-08-26T11:50:35.383Z,25.00
2022-08-26T11:53:06.332Z,25.00
2022-08-26T11:55:41.795Z,24.90
2022-08-26T11:58:12.374Z,24.80
2022-08-26T12:01:19.643Z,24.80
2022-08-26T12:03:49.945Z,24.80
2022-08-26T12:06:28.449Z,25.00
2022-08-26T12:09:01.300Z,25.20
2022-08-26T12:11:34.958Z,25.20
2022-08-26T12:14:07.401Z,25.30
2022-08-26T12:16:39.567Z,25.30
2022-08-26T12:19:22.223Z,25.50
2022-08-26T12:21:58.711Z,25.40
2022-08-26T12:24:25.325Z,25.50
2022-08-26T12:27:18.267Z,25.50
2022-08-26T12:29:59.444Z,25.70
2022-08-26T12:32:26.449Z,25.80
2022-08-26T12:34:55.261Z,26.10
2022-08-26T12:37:22.303Z,26.20
2022-08-26T12:39:49.209Z,26.10
2022-08-26T12:42:15.869Z,26.20
2022-08-26T12:44:53.756Z,26.30
2022-08-26T12:47:42.492Z,26.50
2022-08-26T12:50:20.447Z,26.60
2022-08-26T12:53:11.340Z,26.70
2022-08-26T12:55:44.891Z,26.80
2022-08-26T12:58:22.276Z,26.80
2022-08-26T13:00:55.294Z,26.90
2022-08-26T13:03:33.931Z,26.90
2022-08-26T13:06:22.112Z,27.00
2022-08-26T13:09:20.672Z,27.10
2022-08-26T13:11:47.457Z,27.10
2022-08-26T13:14:21.040Z,27.10
2022-08-26T13:16:51.906Z,27.10
2022-08-26T13:19:25.305Z,27.10
2022-08-26T13:21:55.230Z,27.10
2022-08-26T13:24:33.907Z,27.10
2022-08-26T13:27:01.147Z,27.20
2022-08-26T13:29:27.779Z,27.30
2022-08-26T13:31:55.491Z,27.40
2022-08-26T13:34:23.131Z,27.30
2022-08-26T13:36:53.277Z,27.10
2022-08-26T13:39:21.217Z,27.10
2022-08-26T13:41:47.992Z,27.20
2022-08-26T13:44:14.732Z,27.30
2022-08-26T13:46:41.480Z,27.20
2022-08-26T13:49:08.683Z,27.30
2022-08-26T13:51:35.727Z,27.40
2022-08-26T13:54:02.304Z,27.50
2022-08-26T13:56:31.964Z,27.40
2022-08-26T13:58:59.956Z,27.20
2022-08-26T14:01:30.036Z,27.10
2022-08-26T14:03:57.271Z,27.00
2022-08-26T14:06:24.896Z,27.00
2022-08-26T14:08:51.675Z,27.10
2022-08-26T14:11:18.783Z,27.10
2022-08-26T14:13:45.396Z,27.20
2022-08-26T14:16:20.512Z,27.20
2022-08-26T14:18:50.722Z,27.20
2022-08-26T14:21:18.105Z,27.20
2022-08-26T14:23:44.709Z,27.20
2022-08-26T14:26:12.010Z,27.20
2022-08-26T14:28:55.273Z,27.10
2022-08-26T14:31:26.680Z,27.00
2022-08-26T14:33:53.449Z,27.00
2022-08-26T14:36:31.230Z,27.10
2022-08-26T14:39:01.880Z,27.30
2022-08-26T14:41:30.947Z,27.40
2022-08-26T14:44:02.209Z,27.90
2022-08-26T14:46:32.150Z,28.20
2022-08-26T14:49:01.464Z,28.30
2022-08-26T14:51:29.485Z,28.40
2022-08-26T14:54:14.461Z,28.50
2022-08-26T14:56:46.019Z,28.60
2022-08-26T14:59:14.614Z,28.70
2022-08-26T15:01:41.616Z,28.70
2022-08-26T15:04:08.264Z,28.60
2022-08-26T15:06:35.797Z,28.80
2022-08-26T15:09:03.491Z,29.10
2022-08-26T15:11:30.304Z,29.40
2022-08-26T15:13:57.248Z,29.30
2022-08-26T15:16:24.540Z,29.30
2022-08-26T15:18:51.615Z,29.50
2022-08-26T15:21:20.229Z,29.50
2022-08-26T15:23:49.525Z,29.20
2022-08-26T15:26:16.988Z,28.80
2022-08-26T15:28:44.343Z,28.50
2022-08-26T15:31:11.180Z,28.30
2022-08-26T15:33:38.168Z,28.40
2022-08-26T15:36:07.205Z,28.50
2022-08-26T15:38:36.532Z,28.60
2022-08-26T15:41:05.433Z,28.60
2022-08-26T15:43:32.946Z,28.40
2022-08-26T15:45:59.887Z,28.30
2022-08-26T15:48:26.688Z,28.30
2022-08-26T15:51:00.150Z,28.50
2022-08-26T15:53:29.466Z,28.70
2022-08-26T15:55:57.143Z,28.90
2022-08-26T15:58:26.399Z,29.10
2022-08-26T16:00:54.332Z,29.20
2022-08-26T16:03:21.824Z,29.40
2022-08-26T16:05:48.951Z,29.30
2022-08-26T16:08:15.871Z,29.10
2022-08-26T16:10:49.764Z,29.10
2022-08-26T16:13:18.962Z,29.00
2022-08-26T16:15:46.386Z,29.00
2022-08-26T16:18:15.309Z,29.00
2022-08-26T16:20:58.549Z,28.90
2022-08-26T16:23:37.280Z,28.80
2022-08-26T16:26:11.881Z,28.60
2022-08-26T16:28:39.456Z,28.70
2022-08-26T16:31:07.061Z,28.70
2022-08-26T16:33:33.925Z,28.50
2022-08-26T16:36:00.545Z,27.70
2022-08-26T16:38:27.287Z,27.00
2022-08-26T16:40:53.897Z,26.40
2022-08-26T16:43:20.504Z,26.10
2022-08-26T16:45:47.103Z,25.70
2022-08-26T16:48:13.769Z,25.30
2022-08-26T16:50:41.800Z,24.90
2022-08-26T16:55:40.155Z,23.60
2022-08-26T16:58:07.025Z,22.50
2022-08-26T17:00:34.501Z,22.30
2022-08-26T17:03:01.814Z,22.00
2022-08-26T17:05:29.220Z,21.80
2022-08-26T17:07:58.208Z,21.70
2022-08-26T17:10:26.605Z,21.60
2022-08-26T17:12:54.133Z,21.40
2022-08-26T17:15:23.612Z,21.40
2022-08-26T17:17:51.993Z,21.50
2022-08-26T17:20:19.827Z,21.60
2022-08-26T17:22:49.503Z,21.70
2022-08-26T17:25:22.280Z,21.70
2022-08-26T17:27:50.494Z,21.70
2022-08-26T17:30:18.028Z,21.90
2022-08-26T17:32:45.496Z,21.90
2022-08-26T17:35:13.599Z,21.80
2022-08-26T17:37:41.005Z,21.90
2022-08-26T17:40:12.092Z,22.10
2022-08-26T17:42:39.997Z,22.10
2022-08-26T17:45:08.205Z,22.10
2022-08-26T17:47:35.385Z,22.20
2022-08-26T17:50:02.493Z,22.30
2022-08-26T17:52:30.392Z,22.50
2022-08-26T17:54:57.574Z,22.70
2022-08-26T17:57:25.790Z,22.90
2022-08-26T17:59:53.590Z,23.20
2022-08-26T18:02:24.851Z,23.50
2022-08-26T18:04:51.645Z,23.60
2022-08-26T18:07:21.129Z,23.50
2022-08-26T18:09:47.703Z,23.50
2022-08-26T18:12:14.870Z,23.60
2022-08-26T18:14:41.465Z,23.70
2022-08-26T18:17:08.309Z,23.80
2022-08-26T18:19:35.158Z,24.10
2022-08-26T18:22:02.172Z,24.10
2022-08-26T18:24:30.395Z,24.10
2022-08-26T18:26:57.337Z,23.80
2022-08-26T18:29:25.407Z,23.50
2022-08-26T18:31:52.408Z,23.60
2022-08-26T18:34:19.707Z,23.60
2022-08-26T18:36:46.773Z,23.70
2022-08-26T18:39:14.791Z,23.50
2022-08-26T18:41:44.848Z,23.50
2022-08-26T18:44:13.926Z,23.30
2022-08-26T18:46:41.449Z,23.20
2022-08-26T18:49:09.735Z,23.10
2022-08-26T18:51:37.797Z,23.10
2022-08-26T18:54:06.923Z,23.20
2022-08-26T18:56:35.693Z,23.40
2022-08-26T18:59:02.828Z,23.60
2022-08-26T19:01:30.985Z,23.70
2022-08-26T19:03:59.480Z,23.80
2022-08-26T19:06:28.197Z,23.60
2022-08-26T19:08:55.819Z,23.40
2022-08-26T19:11:31.319Z,23.20
2022-08-26T19:14:03.673Z,23.00
2022-08-26T19:16:31.099Z,22.80
2022-08-26T19:18:58.819Z,22.70
2022-08-26T19:21:25.552Z,22.50
2022-08-26T19:23:57.069Z,22.30
2022-08-26T19:26:24.389Z,22.00
2022-08-26T19:28:51.326Z,21.80
2022-08-26T19:31:17.980Z,21.60
2022-08-26T19:33:45.405Z,21.60
2022-08-26T19:36:18.259Z,21.60
2022-08-26T19:38:45.794Z,21.40
2022-08-26T19:41:14.846Z,21.40
2022-08-26T19:43:42.233Z,21.40
2022-08-26T19:46:16.503Z,21.40
2022-08-26T19:48:44.305Z,21.40
2022-08-26T19:51:15.656Z,21.30
2022-08-26T19:53:43.952Z,21.20
2022-08-26T19:56:11.115Z,21.20
2022-08-26T19:58:37.712Z,21.20
2022-08-26T20:01:05.712Z,21.20
2022-08-26T20:03:33.556Z,21.10
2022-08-26T20:06:02.539Z,21.00
2022-08-26T20:08:29.207Z,21.00
2022-08-26T20:10:58.428Z,21.00
2022-08-26T20:13:25.261Z,21.00
2022-08-26T20:15:51.833Z,21.00
2022-08-26T20:18:36.935Z,20.90
2022-08-26T20:21:22.724Z,20.90
2022-08-26T20:23:49.331Z,20.90
2022-08-26T20:26:15.914Z,20.90
2022-08-26T20:28:42.511Z,20.90
2022-08-26T20:31:09.527Z,20.90
2022-08-26T20:33:46.073Z,21.00
2022-08-26T20:36:14.173Z,21.10
2022-08-26T20:38:40.860Z,21.10
2022-08-26T20:41:07.488Z,21.20
2022-08-26T20:43:34.133Z,21.20
2022-08-26T20:46:00.860Z,21.20
2022-08-26T20:48:27.543Z,21.20
2022-08-26T20:50:59.113Z,21.30
2022-08-26T20:53:28.017Z,21.20
2022-08-26T20:55:59.031Z,21.20
2022-08-26T20:58:26.175Z,21.20
2022-08-26T21:00:52.935Z,21.10
2022-08-26T21:03:19.647Z,21.10
2022-08-26T21:05:46.228Z,21.10
2022-08-26T21:08:13.108Z,21.00
2022-08-26T21:10:40.321Z,21.00
2022-08-26T21:13:07.856Z,21.00
2022-08-26T21:15:35.299Z,20.90
2022-08-26T21:18:03.225Z,20.90
2022-08-26T21:20:30.837Z,20.80
2022-08-26T21:22:57.456Z,20.80
2022-08-26T21:25:24.692Z,20.90
2022-08-26T21:27:51.400Z,20.90
2022-08-26T21:30:19.394Z,20.90
2022-08-26T21:32:46.073Z,20.90
2022-08-26T21:35:12.741Z,21.00
2022-08-26T21:37:39.619Z,21.00
2022-08-26T21:40:07.548Z,20.90
2022-08-26T21:42:34.843Z,20.80
2022-08-26T21:45:02.821Z,20.60
2022-08-26T21:47:31.987Z,20.50
2022-08-26T21:49:58.903Z,20.60
2022-08-26T21:52:26.309Z,20.60
2022-08-26T21:55:00.527Z,20.60
2022-08-26T21:57:28.219Z,20.60
2022-08-26T21:59:55.449Z,20.50
2022-08-26T22:02:22.636Z,20.50
2022-08-26T22:04:49.561Z,20.50
2022-08-26T22:07:17.900Z,20.50
2022-08-26T22:09:44.962Z,20.40
2022-08-26T22:12:12.579Z,20.30
2022-08-26T22:14:39.674Z,20.30
2022-08-26T22:17:06.738Z,20.30
2022-08-26T22:19:34.089Z,20.30
2022-08-26T22:22:12.917Z,20.20
2022-08-26T22:24:39.904Z,20.20
2022-08-26T22:27:06.540Z,20.20
2022-08-26T22:29:33.155Z,20.20
2022-08-26T22:32:00.244Z,20.30
2022-08-26T22:34:27.218Z,20.30
2022-08-26T22:36:54.319Z,20.20
2022-08-26T22:39:23.695Z,20.20
2022-08-26T22:41:51.566Z,20.20
2022-08-26T22:44:20.353Z,20.20
2022-08-26T22:46:48.141Z,20.10
2022-08-26T22:49:16.339Z,20.10
2022-08-26T22:51:44.472Z,20.00
2022-08-26T22:54:12.651Z,20.10
2022-08-26T22:56:40.172Z,20.10
2022-08-26T22:59:07.787Z,20.20
2022-08-26T23:01:38.920Z,20.20
2022-08-26T23:04:06.628Z,20.00
2022-08-26T23:06:41.109Z,20.00
2022-08-26T23:09:08.932Z,20.00
2022-08-26T23:11:35.591Z,20.00
2022-08-26T23:14:06.377Z,19.90
2022-08-26T23:16:39.533Z,19.90
2022-08-26T23:19:10.794Z,19.90
2022-08-26T23:21:38.292Z,19.90
2022-08-26T23:24:06.213Z,19.90
2022-08-26T23:26:34.196Z,19.90
2022-08-26T23:29:01.848Z,19.90
2022-08-26T23:31:28.560Z,20.00
2022-08-26T23:34:13.976Z,20.00
2022-08-26T23:36:43.323Z,19.90
2022-08-26T23:39:13.250Z,19.90
2022-08-26T23:41:39.924Z,19.80
2022-08-26T23:44:06.551Z,19.80
2022-08-26T23:46:34.557Z,19.80
2022-08-26T23:49:01.794Z,19.70
2022-08-26T23:51:46.840Z,19.70
2022-08-26T23:54:14.859Z,19.70
2022-08-26T23:56:42.679Z,19.60
2022-08-26T23:59:09.253Z,19.60
